ムンバイ の空港の天気 - METARとTAF

チャットラパティー・シヴァージー国際空港 ( VABB / BOM ) - インド ムンバイ
飛行場実況気象(Metar)
観測時間05/29 04:30 IST (05/28 23:00 UTC)
風向・風速南西 5m/s
視程3500m
天気現象煙霧
全天の4割程度の雲 雲底高度 610m
全天の4割程度の雲 雲底高度 760m
気温30℃
湿度75%
気圧1006hPa
METARVABB 282300Z 22009KT 3500 HZ SCT020 SCT025 30/25 Q1006 NOSIG
過去の天気等 Google飛行場航空写真 Wunderground天気予報

過去48時間のMETAR

飛行場予報(TAF)
発表時間: 5/29 01:30 IST (5/28 20:00 UTC)
予報対象時間: 29日2時 IST ~ 29日11時 IST
風向・風速西南西 4m/s
視程3000m
天気現象煙霧
全天の4割程度の雲 雲底高度 610m
29日4時 IST ~ 29日8時 IST に一時的に
視程2500m
天気現象弱い雨 霧雨
全天の4割程度の雲 雲底高度 550m
全天の4割程度の雲 雲底高度 760m
全天の8割程度の雲 雲底高度 2440m
29日10時 IST ~ 29日11時 IST に徐々に
風向・風速西 5m/s
視程4000m
天気現象煙霧
TAF VABB 282000Z 2821/2906 24008KT 3000 HZ SCT020
TEMPO 2823/2903 2500 -RA DZ SCT018 SCT025 BKN080
BECMG 2905/2906 26010KT 4000 HZ